Time;durP1;ratioP1;P1;durP2;ratioP2;P2;SDS_P1;SDS_P2;PMS_P1;PMS_P2;Temp;Humidity;BMP_temperature;BMP_pressure;BME280_temperature;BME280_humidity;BME280_pressure;Samples;Min_cycle;Max_cycle;Signal;HPM_P1;HPM_P2
2022/08/22 00:00:54;;;;;;;13.95;6.28;;;;;;;;;;5087528;28;20143;-77
2022/08/22 00:03:23;;;;;;;12.65;7.38;;;;;;;;;;5083779;28;20284;-77
2022/08/22 00:05:58;;;;;;;8.50;5.72;;;;;;;;;;5092414;28;20072;-76
2022/08/22 00:08:25;;;;;;;12.73;6.93;;;;;;;;;;5093731;28;20036;-77
2022/08/22 00:11:02;;;;;;;10.00;6.68;;;;;;;;;;5098760;28;20051;-76
2022/08/22 00:13:51;;;;;;;8.48;5.72;;;;;;;;;;5074528;28;20032;-76
2022/08/22 00:16:20;;;;;;;10.00;6.45;;;;;;;;;;5091674;28;20564;-76
2022/08/22 00:18:46;;;;;;;13.90;6.50;;;;;;;;;;5074141;28;20035;-76
2022/08/22 00:21:12;;;;;;;11.45;5.95;;;;;;;;;;5089262;28;20044;-76
2022/08/22 00:23:44;;;;;;;10.82;5.32;;;;;;;;;;5091431;28;20033;-76
2022/08/22 00:26:30;;;;;;;9.02;5.40;;;;;;;;;;5093108;28;20119;-76
2022/08/22 00:29:00;;;;;;;8.00;5.03;;;;;;;;;;5092484;28;20036;-76
2022/08/22 00:31:30;;;;;;;8.52;5.43;;;;;;;;;;5088703;28;20501;-76
2022/08/22 00:34:05;;;;;;;11.85;5.32;;;;;;;;;;5090848;28;20394;-76
2022/08/22 00:36:31;;;;;;;10.23;5.68;;;;;;;;;;5091010;28;20051;-76
2022/08/22 00:39:18;;;;;;;7.45;5.13;;;;;;;;;;5090225;28;20040;-76
2022/08/22 00:41:58;;;;;;;7.35;4.75;;;;;;;;;;5092566;28;20047;-76
2022/08/22 00:44:27;;;;;;;6.82;4.40;;;;;;;;;;5090975;28;20114;-76
2022/08/22 00:46:53;;;;;;;9.50;4.68;;;;;;;;;;5090345;28;20105;-76
2022/08/22 00:49:19;;;;;;;10.20;4.20;;;;;;;;;;5074145;28;20120;-77
2022/08/22 00:51:55;;;;;;;6.20;3.30;;;;;;;;;;5090269;28;20120;-76
2022/08/22 00:54:46;;;;;;;6.65;4.13;;;;;;;;;;5090690;28;20615;-76
2022/08/22 00:57:21;;;;;;;6.40;4.47;;;;;;;;;;5089312;28;20044;-75
2022/08/22 01:00:12;;;;;;;6.93;4.45;;;;;;;;;;5089998;28;20186;-75
2022/08/22 01:02:41;;;;;;;7.80;4.53;;;;;;;;;;5090473;28;20048;-76
2022/08/22 01:05:13;;;;;;;9.25;5.38;;;;;;;;;;5095162;28;20513;-75
2022/08/22 01:07:47;;;;;;;15.32;5.22;;;;;;;;;;5089251;28;20044;-76
2022/08/22 01:10:29;;;;;;;7.40;4.93;;;;;;;;;;5087385;28;20558;-76
2022/08/22 01:13:14;;;;;;;8.48;5.25;;;;;;;;;;5104563;28;20058;-78
2022/08/22 01:15:41;;;;;;;8.65;5.63;;;;;;;;;;5090702;28;20048;-77
2022/08/22 01:18:42;;;;;;;9.98;5.32;;;;;;;;;;5083614;28;20056;-77
2022/08/22 01:21:10;;;;;;;9.88;6.10;;;;;;;;;;5090228;28;20186;-77
2022/08/22 01:23:55;;;;;;;7.10;5.18;;;;;;;;;;5089034;28;20043;-77
2022/08/22 01:26:40;;;;;;;10.65;6.28;;;;;;;;;;5090754;28;20040;-77
2022/08/22 01:29:25;;;;;;;10.05;5.55;;;;;;;;;;5089295;28;20137;-77
2022/08/22 01:32:06;;;;;;;10.40;6.03;;;;;;;;;;5091552;28;20096;-77
2022/08/22 01:34:41;;;;;;;10.07;4.88;;;;;;;;;;5079967;28;20427;-76
2022/08/22 01:37:13;;;;;;;10.52;5.20;;;;;;;;;;5094388;28;20201;-77
2022/08/22 01:39:48;;;;;;;7.10;5.05;;;;;;;;;;5090836;28;20040;-77
2022/08/22 01:42:14;;;;;;;11.80;5.10;;;;;;;;;;5089626;28;20470;-77
2022/08/22 01:44:59;;;;;;;11.10;5.82;;;;;;;;;;5091902;28;20043;-77
2022/08/22 01:47:48;;;;;;;8.07;4.65;;;;;;;;;;5104473;27;20084;-77
2022/08/22 01:50:21;;;;;;;9.02;5.13;;;;;;;;;;5055139;28;20143;-77
2022/08/22 01:52:52;;;;;;;7.05;5.13;;;;;;;;;;5114260;27;20441;-77
2022/08/22 01:55:21;;;;;;;6.50;4.50;;;;;;;;;;5100906;27;20536;-77
2022/08/22 01:57:52;;;;;;;6.72;4.80;;;;;;;;;;5092980;28;20125;-77
2022/08/22 02:00:19;;;;;;;8.63;4.53;;;;;;;;;;5093435;28;20044;-77
2022/08/22 02:03:05;;;;;;;8.93;5.32;;;;;;;;;;5111196;28;20036;-77
2022/08/22 02:05:36;;;;;;;7.38;5.00;;;;;;;;;;5110691;28;20043;-77
2022/08/22 02:08:02;;;;;;;9.35;5.78;;;;;;;;;;5092262;28;20169;-76
2022/08/22 02:10:37;;;;;;;6.30;4.88;;;;;;;;;;5065168;27;20050;-76
2022/08/22 02:13:09;;;;;;;11.90;5.30;;;;;;;;;;5075977;28;20046;-75
2022/08/22 02:15:35;;;;;;;5.97;4.75;;;;;;;;;;5075658;28;20050;-76
2022/08/22 02:18:05;;;;;;;8.52;5.18;;;;;;;;;;5093123;28;20051;-76
2022/08/22 02:20:40;;;;;;;9.65;5.30;;;;;;;;;;5109467;27;20446;-75
2022/08/22 02:23:21;;;;;;;5.88;4.82;;;;;;;;;;5091925;28;20046;-76
2022/08/22 02:25:56;;;;;;;9.65;5.28;;;;;;;;;;5091710;28;20031;-76
2022/08/22 02:28:37;;;;;;;9.10;4.95;;;;;;;;;;5092890;28;20059;-77
2022/08/22 02:31:03;;;;;;;6.93;4.43;;;;;;;;;;5107061;28;20040;-77
2022/08/22 02:33:29;;;;;;;7.15;5.00;;;;;;;;;;5110754;28;20289;-77
2022/08/22 02:35:59;;;;;;;7.75;4.72;;;;;;;;;;5075331;27;20485;-76
2022/08/22 02:38:25;;;;;;;6.70;4.45;;;;;;;;;;5106607;27;20031;-76
2022/08/22 02:40:51;;;;;;;8.98;5.00;;;;;;;;;;5109500;27;20036;-77
2022/08/22 02:43:17;;;;;;;6.97;4.85;;;;;;;;;;5092303;28;20044;-77
2022/08/22 02:45:53;;;;;;;9.70;4.18;;;;;;;;;;5113545;27;20163;-76
2022/08/22 02:48:38;;;;;;;8.23;4.15;;;;;;;;;;5097336;28;20089;-78
2022/08/22 02:51:14;;;;;;;6.85;4.43;;;;;;;;;;5101187;28;20039;-77
2022/08/22 02:53:46;;;;;;;9.13;5.10;;;;;;;;;;5099548;27;20036;-78
2022/08/22 02:56:21;;;;;;;9.38;5.40;;;;;;;;;;5095386;28;20413;-77
2022/08/22 02:58:55;;;;;;;7.70;4.03;;;;;;;;;;5110352;28;20528;-77
2022/08/22 03:01:21;;;;;;;7.10;3.85;;;;;;;;;;5092020;28;20039;-78
2022/08/22 03:03:49;;;;;;;9.68;4.60;;;;;;;;;;5110071;27;20036;-76
2022/08/22 03:06:37;;;;;;;7.47;4.13;;;;;;;;;;5116191;27;20057;-76
2022/08/22 03:09:16;;;;;;;9.70;4.38;;;;;;;;;;5105002;28;20046;-76
2022/08/22 03:11:52;;;;;;;11.55;4.72;;;;;;;;;;5108791;28;20027;-77
2022/08/22 03:14:22;;;;;;;6.45;4.30;;;;;;;;;;5110041;28;20046;-76
2022/08/22 03:17:03;;;;;;;7.13;4.18;;;;;;;;;;5109906;28;20084;-77
2022/08/22 03:19:44;;;;;;;8.80;4.13;;;;;;;;;;5089075;27;20078;-76
2022/08/22 03:22:34;;;;;;;7.97;4.15;;;;;;;;;;5082982;28;20046;-76
2022/08/22 03:25:07;;;;;;;9.40;4.80;;;;;;;;;;5065125;27;20051;-76
2022/08/22 03:27:45;;;;;;;8.38;4.85;;;;;;;;;;5091989;28;20035;-76
2022/08/22 03:30:17;;;;;;;6.53;4.53;;;;;;;;;;5107372;28;20043;-77
2022/08/22 03:32:46;;;;;;;8.80;4.53;;;;;;;;;;5109665;28;20031;-76
2022/08/22 03:35:22;;;;;;;11.38;4.63;;;;;;;;;;5089005;28;20058;-76
2022/08/22 03:37:49;;;;;;;7.95;4.53;;;;;;;;;;5087429;28;20040;-76
2022/08/22 03:40:19;;;;;;;6.85;4.35;;;;;;;;;;5104000;28;20275;-76
2022/08/22 03:42:45;;;;;;;5.30;4.30;;;;;;;;;;5091446;28;20044;-76
2022/08/22 03:45:11;;;;;;;7.30;4.63;;;;;;;;;;5112432;28;20050;-76
2022/08/22 03:47:45;;;;;;;11.23;4.88;;;;;;;;;;5109341;28;20090;-77
2022/08/22 03:50:37;;;;;;;6.22;3.95;;;;;;;;;;5109260;28;20088;-76
2022/08/22 03:53:06;;;;;;;6.80;4.57;;;;;;;;;;5079441;28;20047;-76
2022/08/22 03:55:52;;;;;;;5.05;3.45;;;;;;;;;;5081887;28;20044;-76
2022/08/22 03:58:37;;;;;;;6.25;4.10;;;;;;;;;;5109714;28;20035;-76
2022/08/22 04:01:27;;;;;;;5.88;3.90;;;;;;;;;;5109412;28;20492;-76
2022/08/22 04:04:19;;;;;;;8.20;4.38;;;;;;;;;;5042625;28;20052;-76
2022/08/22 04:07:04;;;;;;;7.75;3.97;;;;;;;;;;5101938;28;20062;-76
2022/08/22 04:09:33;;;;;;;6.50;3.95;;;;;;;;;;5094603;28;20115;-76
2022/08/22 04:12:17;;;;;;;7.13;3.83;;;;;;;;;;5109246;28;20036;-77
2022/08/22 04:14:58;;;;;;;6.07;4.53;;;;;;;;;;5089973;28;20100;-76
2022/08/22 04:17:24;;;;;;;9.10;4.50;;;;;;;;;;5074378;28;20047;-76
2022/08/22 04:19:57;;;;;;;8.80;4.60;;;;;;;;;;5074672;28;20504;-77
2022/08/22 04:22:42;;;;;;;9.32;4.30;;;;;;;;;;5112605;28;20035;-76
2022/08/22 04:25:28;;;;;;;6.68;4.45;;;;;;;;;;5106332;28;20039;-77
2022/08/22 04:28:02;;;;;;;8.45;4.07;;;;;;;;;;5073314;28;20112;-77
2022/08/22 04:30:31;;;;;;;7.38;4.65;;;;;;;;;;5110216;28;20050;-77
2022/08/22 04:33:01;;;;;;;7.20;3.58;;;;;;;;;;5109086;28;20039;-76
2022/08/22 04:35:30;;;;;;;7.35;4.13;;;;;;;;;;5109252;28;20046;-77
2022/08/22 04:38:00;;;;;;;9.25;4.57;;;;;;;;;;5091104;28;20043;-77
2022/08/22 04:40:38;;;;;;;4.88;3.80;;;;;;;;;;5079607;28;20067;-77
2022/08/22 04:43:10;;;;;;;9.82;4.07;;;;;;;;;;5078827;28;20164;-77
2022/08/22 04:45:42;;;;;;;7.53;4.07;;;;;;;;;;5107857;28;20461;-77
2022/08/22 04:48:15;;;;;;;7.10;4.57;;;;;;;;;;5099208;27;20051;-77
2022/08/22 04:50:45;;;;;;;5.53;4.55;;;;;;;;;;5119113;27;20040;-77
2022/08/22 04:53:25;;;;;;;9.38;4.53;;;;;;;;;;5110880;27;20213;-77
2022/08/22 04:55:55;;;;;;;6.47;4.43;;;;;;;;;;5094253;28;20043;-77
2022/08/22 04:58:39;;;;;;;9.70;4.75;;;;;;;;;;5094259;28;20527;-77
2022/08/22 05:01:31;;;;;;;7.85;4.63;;;;;;;;;;5123167;27;20568;-76
2022/08/22 05:04:02;;;;;;;5.85;4.28;;;;;;;;;;5084833;27;20051;-77
2022/08/22 05:06:31;;;;;;;12.50;4.80;;;;;;;;;;5094537;28;20139;-77
2022/08/22 05:09:03;;;;;;;13.80;4.53;;;;;;;;;;5110440;27;20122;-76
2022/08/22 05:11:30;;;;;;;8.73;4.80;;;;;;;;;;5083915;27;20062;-77
2022/08/22 05:13:59;;;;;;;7.22;4.35;;;;;;;;;;5098107;28;20043;-77
2022/08/22 05:16:32;;;;;;;10.15;5.65;;;;;;;;;;5118100;27;20054;-76
2022/08/22 05:18:58;;;;;;;;;;;;;;;;;;5112042;27;20096;-76
2022/08/22 05:21:26;;;;;;;8.60;4.57;;;;;;;;;;5090257;28;19916;-76
2022/08/22 05:24:02;;;;;;;6.25;4.72;;;;;;;;;;5102101;27;20047;-76
2022/08/22 05:26:30;;;;;;;13.55;5.28;;;;;;;;;;5087285;28;20073;-76
2022/08/22 05:29:04;;;;;;;6.60;4.05;;;;;;;;;;5107741;27;20043;-76
2022/08/22 05:31:32;;;;;;;7.25;4.60;;;;;;;;;;5088079;28;20078;-76
2022/08/22 05:34:02;;;;;;;8.68;4.95;;;;;;;;;;5107433;28;20035;-76
2022/08/22 05:36:32;;;;;;;7.13;4.78;;;;;;;;;;5090361;28;20406;-76
2022/08/22 05:39:05;;;;;;;5.32;4.22;;;;;;;;;;5090151;28;20097;-76
2022/08/22 05:41:34;;;;;;;6.68;4.70;;;;;;;;;;5090824;28;20050;-76
2022/08/22 05:44:01;;;;;;;10.32;5.00;;;;;;;;;;5107630;27;20097;-76
2022/08/22 05:46:43;;;;;;;5.53;4.10;;;;;;;;;;5084844;28;20056;-76
2022/08/22 05:49:18;;;;;;;7.05;3.90;;;;;;;;;;5076885;28;20062;-76
2022/08/22 05:51:48;;;;;;;5.97;3.90;;;;;;;;;;5092880;27;20596;-76
2022/08/22 05:54:18;;;;;;;11.68;4.13;;;;;;;;;;5070118;28;20055;-76
2022/08/22 05:56:47;;;;;;;9.25;4.45;;;;;;;;;;5080035;28;20071;-76
2022/08/22 05:59:33;;;;;;;8.48;4.40;;;;;;;;;;5097373;28;20036;-76
2022/08/22 06:02:02;;;;;;;7.82;4.22;;;;;;;;;;5085336;28;20047;-76
2022/08/22 06:04:40;;;;;;;8.25;4.25;;;;;;;;;;5093137;28;20514;-76
2022/08/22 06:07:25;;;;;;;6.65;3.85;;;;;;;;;;5091591;28;20047;-76
2022/08/22 06:10:03;;;;;;;12.05;5.00;;;;;;;;;;5103663;27;20126;-76
2022/08/22 06:12:38;;;;;;;8.40;4.40;;;;;;;;;;5092958;28;20123;-76
2022/08/22 06:15:10;;;;;;;9.88;4.45;;;;;;;;;;5110255;27;20046;-76
2022/08/22 06:17:57;;;;;;;9.63;3.97;;;;;;;;;;5090880;28;20312;-76
2022/08/22 06:20:44;;;;;;;6.68;4.20;;;;;;;;;;5077371;28;20077;-76
2022/08/22 06:23:14;;;;;;;7.95;4.07;;;;;;;;;;5091785;28;20079;-77
2022/08/22 06:25:43;;;;;;;9.80;3.95;;;;;;;;;;5114436;27;20052;-76
2022/08/22 06:28:12;;;;;;;9.93;5.07;;;;;;;;;;5113824;27;20123;-75
2022/08/22 06:30:39;;;;;;;9.95;6.65;;;;;;;;;;5092249;28;20092;-77
2022/08/22 06:33:07;;;;;;;11.25;6.35;;;;;;;;;;5111029;27;20116;-76
2022/08/22 06:38:24;;;;;;;10.80;4.47;;;;;;;;;;5109561;28;20047;-76
2022/08/22 06:40:53;;;;;;;6.93;3.95;;;;;;;;;;5110337;28;20081;-77
2022/08/22 06:43:20;;;;;;;8.75;4.65;;;;;;;;;;5092175;28;20043;-76
2022/08/22 06:45:47;;;;;;;8.98;5.10;;;;;;;;;;5109059;27;20062;-76
2022/08/22 06:48:18;;;;;;;6.88;4.38;;;;;;;;;;5092856;28;20058;-76
2022/08/22 06:50:47;;;;;;;9.10;4.45;;;;;;;;;;5099796;28;20031;-76
2022/08/22 06:53:23;;;;;;;9.88;5.15;;;;;;;;;;5115317;27;20114;-76
2022/08/22 06:55:54;;;;;;;11.15;5.40;;;;;;;;;;5109784;28;20076;-76
2022/08/22 06:58:23;;;;;;;6.45;4.60;;;;;;;;;;5108368;28;20076;-77
2022/08/22 07:00:53;;;;;;;9.02;5.80;;;;;;;;;;5105640;27;20048;-75
2022/08/22 07:03:26;;;;;;;6.13;4.00;;;;;;;;;;5073328;27;20104;-76
2022/08/22 07:05:52;;;;;;;;;;;;;;;;;;5087623;28;20051;-75
2022/08/22 07:08:19;;;;;;;11.20;4.78;;;;;;;;;;5109498;28;19972;-76
2022/08/22 07:10:49;;;;;;;7.88;4.55;;;;;;;;;;5121845;27;20369;-75
2022/08/22 07:13:16;;;;;;;13.82;4.75;;;;;;;;;;5110510;27;20100;-76
2022/08/22 07:15:42;;;;;;;6.55;3.97;;;;;;;;;;5074815;28;20047;-75
2022/08/22 07:18:16;;;;;;;10.60;5.15;;;;;;;;;;5110130;27;20311;-75
2022/08/22 07:20:47;;;;;;;8.13;4.95;;;;;;;;;;5100787;28;20443;-75
2022/08/22 07:23:25;;;;;;;6.60;3.95;;;;;;;;;;5109011;28;20043;-75
2022/08/22 07:25:54;;;;;;;9.50;4.30;;;;;;;;;;5102179;28;20051;-75
2022/08/22 07:28:29;;;;;;;7.63;4.18;;;;;;;;;;5109590;28;20058;-75
2022/08/22 07:30:57;;;;;;;10.70;4.88;;;;;;;;;;5108643;28;20127;-76
2022/08/22 07:33:42;;;;;;;6.03;3.72;;;;;;;;;;5091605;28;20027;-75
2022/08/22 07:36:20;;;;;;;6.78;4.22;;;;;;;;;;5097332;28;20035;-75
2022/08/22 07:39:09;;;;;;;10.20;5.70;;;;;;;;;;5107425;27;20028;-76
2022/08/22 07:41:45;;;;;;;8.65;5.65;;;;;;;;;;5069628;28;20055;-75
2022/08/22 07:44:15;;;;;;;8.13;5.07;;;;;;;;;;5073302;28;20051;-75
2022/08/22 07:46:49;;;;;;;10.60;5.97;;;;;;;;;;5088704;28;20060;-76
2022/08/22 07:49:21;;;;;;;13.25;6.13;;;;;;;;;;5084610;28;20052;-76
2022/08/22 07:52:08;;;;;;;11.50;6.57;;;;;;;;;;5079807;28;20039;-76
2022/08/22 07:54:34;;;;;;;9.77;6.63;;;;;;;;;;5105612;28;20036;-76
2022/08/22 07:57:20;;;;;;;11.13;6.40;;;;;;;;;;5101200;28;20050;-76
2022/08/22 07:59:48;;;;;;;14.55;6.50;;;;;;;;;;5084456;28;20557;-76
2022/08/22 08:02:15;;;;;;;11.43;6.25;;;;;;;;;;5089190;28;20058;-77
2022/08/22 08:04:42;;;;;;;9.15;5.38;;;;;;;;;;5089484;28;20345;-76
2022/08/22 08:07:09;;;;;;;18.30;6.20;;;;;;;;;;5087046;28;20451;-76
2022/08/22 08:09:40;;;;;;;7.57;5.07;;;;;;;;;;5088334;28;20036;-76
2022/08/22 08:12:09;;;;;;;16.63;5.35;;;;;;;;;;5089578;28;20036;-76
2022/08/22 08:14:36;;;;;;;8.77;4.35;;;;;;;;;;5090497;28;20123;-77
2022/08/22 08:17:04;;;;;;;10.02;5.15;;;;;;;;;;5084670;28;20571;-76
2022/08/22 08:19:33;;;;;;;8.27;4.00;;;;;;;;;;5085232;28;20044;-77
2022/08/22 08:21:59;;;;;;;9.55;4.53;;;;;;;;;;5083977;28;20041;-77
2022/08/22 08:24:30;;;;;;;9.02;3.90;;;;;;;;;;5087233;28;20079;-75
2022/08/22 08:29:54;;;;;;;5.22;3.53;;;;;;;;;;5084435;28;20085;-76
2022/08/22 08:32:22;;;;;;;16.00;5.72;;;;;;;;;;5095852;28;20043;-79
2022/08/22 08:34:49;;;;;;;11.50;4.35;;;;;;;;;;5102694;28;20046;-77
2022/08/22 08:37:34;;;;;;;8.80;4.07;;;;;;;;;;5095558;28;20173;-77
2022/08/22 08:40:03;;;;;;;7.10;4.15;;;;;;;;;;5089851;28;20039;-77
2022/08/22 08:42:29;;;;;;;7.22;3.03;;;;;;;;;;5086502;28;20039;-77
2022/08/22 08:45:06;;;;;;;8.60;3.38;;;;;;;;;;5091799;28;20468;-77
2022/08/22 08:47:39;;;;;;;10.13;4.43;;;;;;;;;;5111431;27;20082;-77
2022/08/22 08:50:27;;;;;;;9.40;3.38;;;;;;;;;;5113672;28;20520;-78
2022/08/22 08:52:53;;;;;;;5.57;3.13;;;;;;;;;;5090851;28;20035;-77
2022/08/22 08:55:46;;;;;;;7.07;3.20;;;;;;;;;;5114106;27;20039;-77
2022/08/22 08:58:31;;;;;;;17.60;4.20;;;;;;;;;;5101523;27;20044;-77
2022/08/22 09:01:15;;;;;;;8.02;3.58;;;;;;;;;;5121609;27;20626;-78
2022/08/22 09:04:00;;;;;;;9.10;3.65;;;;;;;;;;5098492;27;20051;-77
2022/08/22 09:06:48;;;;;;;8.45;3.95;;;;;;;;;;5070763;28;20040;-75
2022/08/22 09:09:14;;;;;;;13.93;3.88;;;;;;;;;;5090636;27;20521;-77
2022/08/22 09:11:52;;;;;;;7.60;3.58;;;;;;;;;;5112063;27;20032;-77
2022/08/22 09:14:37;;;;;;;9.75;3.83;;;;;;;;;;5111406;27;20039;-77
2022/08/22 09:17:22;;;;;;;11.20;3.03;;;;;;;;;;5073475;27;20382;-77
2022/08/22 09:20:12;;;;;;;9.20;3.40;;;;;;;;;;5096763;28;20039;-77
2022/08/22 09:22:38;;;;;;;7.40;3.75;;;;;;;;;;5045313;28;20175;-77
2022/08/22 09:25:36;;;;;;;13.23;4.40;;;;;;;;;;5084686;28;20586;-77
2022/08/22 09:28:16;;;;;;;6.85;3.00;;;;;;;;;;5059437;28;20483;-77
2022/08/22 09:30:57;;;;;;;7.18;3.65;;;;;;;;;;5097632;27;20118;-77
2022/08/22 09:33:29;;;;;;;8.52;2.85;;;;;;;;;;5087167;28;20032;-77
2022/08/22 09:35:55;;;;;;;;;;;;;;;;;;5093503;27;20310;-77
2022/08/22 09:38:33;;;;;;;5.63;2.55;;;;;;;;;;5075224;28;19920;-77
2022/08/22 09:41:14;;;;;;;9.68;4.30;;;;;;;;;;5102966;27;20058;-76
2022/08/22 09:43:47;;;;;;;17.60;8.10;;;;;;;;;;5106619;27;20040;-77
2022/08/22 09:46:16;;;;;;;9.38;3.85;;;;;;;;;;5111598;27;20444;-77
2022/08/22 09:48:50;;;;;;;9.25;3.28;;;;;;;;;;5115814;27;20080;-76
2022/08/22 09:51:17;;;;;;;10.73;3.55;;;;;;;;;;5089794;28;20478;-77
2022/08/22 09:54:01;;;;;;;8.98;3.72;;;;;;;;;;5102931;28;20110;-76
2022/08/22 09:56:33;;;;;;;14.02;6.65;;;;;;;;;;5107168;28;20417;-78
2022/08/22 09:59:11;;;;;;;11.48;2.72;;;;;;;;;;5088093;28;20050;-78
2022/08/22 10:01:43;;;;;;;5.10;2.20;;;;;;;;;;5089930;28;20051;-78
2022/08/22 10:04:18;;;;;;;7.03;2.78;;;;;;;;;;5092824;28;20043;-77
2022/08/22 10:06:47;;;;;;;8.95;3.83;;;;;;;;;;5116796;27;20092;-77
2022/08/22 10:09:18;;;;;;;8.57;2.90;;;;;;;;;;5115044;27;20051;-77
2022/08/22 10:11:48;;;;;;;8.52;3.13;;;;;;;;;;5117884;27;20114;-76
2022/08/22 10:14:16;;;;;;;7.95;3.72;;;;;;;;;;5098688;27;20377;-76
2022/08/22 10:17:00;;;;;;;8.48;3.35;;;;;;;;;;5069332;28;20069;-76
2022/08/22 10:19:35;;;;;;;5.43;2.78;;;;;;;;;;5099774;28;20086;-76
2022/08/22 10:22:20;;;;;;;9.13;3.63;;;;;;;;;;5109775;28;20039;-76
2022/08/22 10:24:52;;;;;;;8.98;3.50;;;;;;;;;;5115799;27;20031;-76
2022/08/22 10:27:36;;;;;;;6.50;2.70;;;;;;;;;;5093423;28;20039;-76
2022/08/22 10:30:20;;;;;;;4.97;2.83;;;;;;;;;;5077787;28;20039;-76
2022/08/22 10:32:51;;;;;;;8.32;3.05;;;;;;;;;;5104723;28;20035;-76
2022/08/22 10:35:27;;;;;;;6.60;3.35;;;;;;;;;;5107266;28;20031;-76
2022/08/22 10:38:00;;;;;;;8.27;3.25;;;;;;;;;;5075747;28;20051;-77
2022/08/22 10:40:26;;;;;;;;;;;;;;;;;;5105313;28;20039;-76
2022/08/22 10:43:07;;;;;;;6.32;2.92;;;;;;;;;;5089566;28;19924;-77
2022/08/22 10:45:35;;;;;;;6.63;2.35;;;;;;;;;;5105774;28;20047;-76
2022/08/22 10:48:04;;;;;;;6.68;2.55;;;;;;;;;;5092897;28;20055;-76
2022/08/22 10:50:33;;;;;;;4.28;2.40;;;;;;;;;;5101003;27;20039;-77
2022/08/22 10:55:48;;;;;;;6.68;2.58;;;;;;;;;;5093897;28;20528;-77
2022/08/22 10:58:18;;;;;;;6.28;2.00;;;;;;;;;;5092220;28;20035;-77
2022/08/22 11:00:47;;;;;;;9.02;2.97;;;;;;;;;;5086304;28;20039;-77
2022/08/22 11:03:25;;;;;;;5.57;2.70;;;;;;;;;;5102563;27;20050;-77
2022/08/22 11:05:53;;;;;;;5.47;2.05;;;;;;;;;;5106522;28;20074;-77
2022/08/22 11:08:36;;;;;;;5.97;3.05;;;;;;;;;;5089812;28;20054;-77
2022/08/22 11:11:18;;;;;;;3.75;2.17;;;;;;;;;;5081671;28;20055;-77
2022/08/22 11:13:50;;;;;;;5.47;2.35;;;;;;;;;;5103266;28;20739;-77
2022/08/22 11:16:46;;;;;;;8.70;2.78;;;;;;;;;;5058151;28;20038;-76
2022/08/22 11:19:27;;;;;;;8.80;3.53;;;;;;;;;;5083977;28;20052;-77
2022/08/22 11:21:53;;;;;;;9.10;2.90;;;;;;;;;;5101814;28;20036;-77
2022/08/22 11:24:19;;;;;;;11.88;3.60;;;;;;;;;;5089565;28;20063;-77
2022/08/22 11:27:04;;;;;;;5.75;2.80;;;;;;;;;;5099978;28;20040;-78
2022/08/22 11:29:37;;;;;;;6.82;3.13;;;;;;;;;;5096231;28;20052;-79
2022/08/22 11:32:09;;;;;;;9.52;2.70;;;;;;;;;;5089007;28;20040;-77
2022/08/22 11:34:42;;;;;;;8.68;2.72;;;;;;;;;;5091315;28;20055;-77
2022/08/22 11:37:11;;;;;;;7.80;3.00;;;;;;;;;;5116805;27;20032;-77
2022/08/22 11:39:56;;;;;;;5.22;2.42;;;;;;;;;;5095745;27;20529;-77
2022/08/22 11:42:34;;;;;;;6.13;2.63;;;;;;;;;;5066426;28;20052;-77
2022/08/22 11:45:01;;;;;;;7.70;3.15;;;;;;;;;;5110541;28;20378;-78
2022/08/22 11:47:30;;;;;;;11.55;3.45;;;;;;;;;;5084213;28;20054;-77
2022/08/22 11:49:56;;;;;;;9.95;2.67;;;;;;;;;;5108752;28;20681;-77
2022/08/22 11:52:38;;;;;;;5.25;2.85;;;;;;;;;;5103012;28;20035;-77
2022/08/22 11:55:10;;;;;;;6.15;2.70;;;;;;;;;;5091000;28;20040;-77
2022/08/22 11:57:39;;;;;;;8.15;3.10;;;;;;;;;;5112093;28;20035;-77
2022/08/22 12:00:21;;;;;;;9.77;3.45;;;;;;;;;;5119699;27;20046;-77
2022/08/22 12:02:47;;;;;;;5.88;2.83;;;;;;;;;;5095349;28;20081;-77
2022/08/22 12:05:19;;;;;;;4.60;2.42;;;;;;;;;;5113736;27;20031;-77
2022/08/22 12:07:52;;;;;;;6.78;2.83;;;;;;;;;;5095224;28;20042;-77
2022/08/22 12:10:28;;;;;;;7.82;3.35;;;;;;;;;;5117502;27;20140;-76
2022/08/22 12:12:59;;;;;;;4.75;2.63;;;;;;;;;;5092519;28;20397;-76
2022/08/22 12:15:44;;;;;;;8.95;3.75;;;;;;;;;;5096143;28;20036;-77
2022/08/22 12:18:10;;;;;;;6.07;2.97;;;;;;;;;;5119014;27;20027;-77
2022/08/22 12:20:55;;;;;;;6.35;2.65;;;;;;;;;;5113871;27;20045;-77
2022/08/22 12:23:21;;;;;;;6.60;2.45;;;;;;;;;;5084533;28;20044;-77
2022/08/22 12:25:59;;;;;;;4.55;2.70;;;;;;;;;;5105502;27;20039;-77
2022/08/22 12:28:46;;;;;;;7.43;2.67;;;;;;;;;;5087528;28;20117;-77
2022/08/22 12:31:31;;;;;;;7.60;3.17;;;;;;;;;;5088468;28;20051;-76
2022/08/22 12:34:06;;;;;;;5.18;2.67;;;;;;;;;;5113211;28;20459;-77
2022/08/22 12:36:32;;;;;;;5.15;2.75;;;;;;;;;;5113276;28;20389;-77
2022/08/22 12:39:05;;;;;;;5.65;2.70;;;;;;;;;;5112385;27;20381;-77
2022/08/22 12:41:44;;;;;;;8.95;2.70;;;;;;;;;;5090526;27;20601;-77
2022/08/22 12:44:16;;;;;;;8.82;2.50;;;;;;;;;;5117022;27;20537;-77
2022/08/22 12:46:45;;;;;;;9.43;3.15;;;;;;;;;;5086092;28;20081;-77
2022/08/22 12:49:19;;;;;;;11.63;3.45;;;;;;;;;;5087220;28;20394;-77
2022/08/22 12:51:49;;;;;;;8.95;3.30;;;;;;;;;;5112381;27;20070;-76
2022/08/22 12:54:18;;;;;;;7.75;3.00;;;;;;;;;;5102802;28;20031;-76
2022/08/22 12:56:52;;;;;;;12.20;3.17;;;;;;;;;;5092280;28;20040;-77
2022/08/22 12:59:27;;;;;;;6.10;2.80;;;;;;;;;;5098973;28;20381;-77
2022/08/22 13:01:55;;;;;;;5.65;2.75;;;;;;;;;;5109258;27;20115;-76
2022/08/22 13:04:27;;;;;;;8.82;2.95;;;;;;;;;;5078180;28;20119;-77
2022/08/22 13:06:59;;;;;;;7.47;2.88;;;;;;;;;;5088219;28;20047;-76
2022/08/22 13:09:25;;;;;;;;;;;;;;;;;;5089987;28;20389;-75
2022/08/22 13:11:53;;;;;;;4.85;2.63;;;;;;;;;;5079041;28;19920;-76
2022/08/22 13:14:21;;;;;;;8.48;2.90;;;;;;;;;;5104845;28;20118;-76
2022/08/22 13:16:50;;;;;;;7.25;2.88;;;;;;;;;;5100608;27;20089;-76
2022/08/22 13:19:18;;;;;;;10.50;3.00;;;;;;;;;;5073189;28;20043;-76
2022/08/22 13:22:06;;;;;;;9.98;3.22;;;;;;;;;;5102726;27;20032;-76
2022/08/22 13:24:36;;;;;;;5.75;2.67;;;;;;;;;;5107563;27;20131;-76
2022/08/22 13:27:10;;;;;;;5.45;2.97;;;;;;;;;;5094755;27;20051;-76
2022/08/22 13:29:46;;;;;;;8.23;3.17;;;;;;;;;;5093376;28;20039;-76
2022/08/22 13:32:33;;;;;;;6.07;2.78;;;;;;;;;;5112916;28;20104;-76
2022/08/22 13:35:00;;;;;;;8.18;3.72;;;;;;;;;;5091803;28;20441;-76
2022/08/22 13:37:37;;;;;;;10.15;3.22;;;;;;;;;;5095634;28;20118;-76
2022/08/22 13:40:12;;;;;;;6.80;3.20;;;;;;;;;;5110988;27;20043;-76
2022/08/22 13:42:44;;;;;;;6.97;2.58;;;;;;;;;;5101481;27;20039;-76
2022/08/22 13:45:13;;;;;;;6.68;3.15;;;;;;;;;;5082481;28;20044;-77
2022/08/22 13:47:46;;;;;;;11.43;3.38;;;;;;;;;;5084358;28;20044;-77
2022/08/22 13:50:14;;;;;;;6.25;2.72;;;;;;;;;;5112421;27;20043;-77
2022/08/22 13:52:57;;;;;;;8.57;3.28;;;;;;;;;;5086297;28;20089;-76
2022/08/22 13:55:26;;;;;;;7.50;3.15;;;;;;;;;;5105252;27;20046;-77
2022/08/22 13:57:52;;;;;;;13.07;3.30;;;;;;;;;;5112503;27;20043;-76
2022/08/22 14:00:18;;;;;;;5.32;3.30;;;;;;;;;;5112624;27;20031;-77
2022/08/22 14:03:02;;;;;;;8.15;3.88;;;;;;;;;;5111972;27;20096;-77
2022/08/22 14:05:34;;;;;;;6.20;3.05;;;;;;;;;;5111432;28;20370;-77
2022/08/22 14:08:19;;;;;;;6.43;2.60;;;;;;;;;;5108956;28;20039;-77
2022/08/22 14:10:52;;;;;;;6.93;3.40;;;;;;;;;;5092161;28;20699;-77
2022/08/22 14:13:31;;;;;;;6.50;3.10;;;;;;;;;;5111840;27;20169;-77
2022/08/22 14:16:01;;;;;;;5.90;2.45;;;;;;;;;;5111155;28;20165;-76
2022/08/22 14:18:38;;;;;;;7.40;3.25;;;;;;;;;;5105155;28;20087;-77
2022/08/22 14:21:19;;;;;;;7.30;3.60;;;;;;;;;;5083636;28;20087;-77
2022/08/22 14:23:50;;;;;;;4.72;2.90;;;;;;;;;;5115099;27;20561;-77
2022/08/22 14:26:36;;;;;;;5.53;2.60;;;;;;;;;;5095505;27;20103;-77
2022/08/22 14:29:04;;;;;;;4.78;2.88;;;;;;;;;;5108071;28;20096;-77
2022/08/22 14:31:30;;;;;;;9.23;2.85;;;;;;;;;;5095142;28;20039;-77
2022/08/22 14:34:06;;;;;;;4.55;2.70;;;;;;;;;;5096637;28;20130;-76
2022/08/22 14:36:38;;;;;;;8.13;3.83;;;;;;;;;;5095548;28;20096;-76
2022/08/22 14:39:08;;;;;;;6.18;2.25;;;;;;;;;;5109196;28;20036;-76
2022/08/22 14:41:44;;;;;;;4.20;2.72;;;;;;;;;;5086135;27;20047;-76
2022/08/22 14:44:17;;;;;;;6.93;3.03;;;;;;;;;;5123476;27;20524;-76
2022/08/22 14:46:44;;;;;;;7.30;2.80;;;;;;;;;;5109362;27;20055;-76
2022/08/22 14:49:13;;;;;;;6.22;2.75;;;;;;;;;;5076038;28;20050;-76
2022/08/22 14:51:45;;;;;;;4.43;2.88;;;;;;;;;;5084105;28;20450;-76
2022/08/22 14:54:19;;;;;;;7.57;2.95;;;;;;;;;;5075386;28;20036;-76
2022/08/22 14:56:47;;;;;;;10.50;3.13;;;;;;;;;;5110648;27;20032;-76
2022/08/22 14:59:30;;;;;;;4.35;2.45;;;;;;;;;;5123991;27;20161;-76
2022/08/22 15:01:59;;;;;;;9.68;2.95;;;;;;;;;;5086715;28;20104;-76
2022/08/22 15:04:46;;;;;;;11.70;3.95;;;;;;;;;;5104442;28;20415;-76
2022/08/22 15:07:21;;;;;;;7.00;3.28;;;;;;;;;;5081821;27;20051;-77
2022/08/22 15:09:52;;;;;;;9.23;2.63;;;;;;;;;;5090266;28;20039;-76
2022/08/22 15:12:30;;;;;;;7.25;3.25;;;;;;;;;;5088055;28;20115;-76
2022/08/22 15:14:58;;;;;;;9.13;2.95;;;;;;;;;;5108267;27;20044;-76
2022/08/22 15:17:34;;;;;;;8.52;2.88;;;;;;;;;;5082893;28;20043;-76
2022/08/22 15:20:12;;;;;;;6.40;3.13;;;;;;;;;;5088461;28;20503;-77
2022/08/22 15:22:40;;;;;;;8.90;3.75;;;;;;;;;;5079951;28;20052;-76
2022/08/22 15:25:11;;;;;;;6.15;2.88;;;;;;;;;;5106637;28;20031;-75
2022/08/22 15:27:43;;;;;;;5.00;3.25;;;;;;;;;;5103139;28;20079;-76
2022/08/22 15:30:11;;;;;;;6.30;3.20;;;;;;;;;;5106276;27;20047;-76
2022/08/22 15:32:39;;;;;;;5.72;2.60;;;;;;;;;;5090179;28;20039;-76